sensor_id;sensor_type;location;lat;lon;timestamp;P1;durP1;ratioP1;P2;durP2;ratioP2
10343;SDS011;5217;43.960;10.954;2023-05-07T00:01:39;1.60;;;1.50;;
10343;SDS011;5217;43.960;10.954;2023-05-07T00:04:09;1.70;;;1.60;;
10343;SDS011;5217;43.960;10.954;2023-05-07T00:06:37;1.90;;;1.70;;
10343;SDS011;5217;43.960;10.954;2023-05-07T00:09:06;3.83;;;1.80;;
10343;SDS011;5217;43.960;10.954;2023-05-07T00:11:35;1.95;;;1.80;;
10343;SDS011;5217;43.960;10.954;2023-05-07T00:14:03;2.03;;;1.80;;
10343;SDS011;5217;43.960;10.954;2023-05-07T00:16:31;1.70;;;1.60;;
10343;SDS011;5217;43.960;10.954;2023-05-07T00:19:00;2.10;;;1.57;;
10343;SDS011;5217;43.960;10.954;2023-05-07T00:21:30;1.93;;;1.60;;
10343;SDS011;5217;43.960;10.954;2023-05-07T00:23:58;2.13;;;1.83;;
10343;SDS011;5217;43.960;10.954;2023-05-07T00:26:26;3.03;;;1.50;;
10343;SDS011;5217;43.960;10.954;2023-05-07T00:28:55;1.83;;;1.63;;
10343;SDS011;5217;43.960;10.954;2023-05-07T00:31:23;1.83;;;1.70;;
10343;SDS011;5217;43.960;10.954;2023-05-07T00:33:51;1.70;;;1.60;;
10343;SDS011;5217;43.960;10.954;2023-05-07T00:36:20;2.23;;;1.70;;
10343;SDS011;5217;43.960;10.954;2023-05-07T00:38:50;1.77;;;1.67;;
10343;SDS011;5217;43.960;10.954;2023-05-07T00:41:18;3.63;;;1.80;;
10343;SDS011;5217;43.960;10.954;2023-05-07T00:43:46;2.03;;;1.77;;
10343;SDS011;5217;43.960;10.954;2023-05-07T00:46:14;1.80;;;1.70;;
10343;SDS011;5217;43.960;10.954;2023-05-07T00:48:43;2.80;;;1.87;;
10343;SDS011;5217;43.960;10.954;2023-05-07T00:51:12;2.00;;;1.80;;
10343;SDS011;5217;43.960;10.954;2023-05-07T00:53:41;2.70;;;1.90;;
10343;SDS011;5217;43.960;10.954;2023-05-07T00:56:11;2.00;;;1.83;;
10343;SDS011;5217;43.960;10.954;2023-05-07T00:58:40;1.60;;;1.50;;
10343;SDS011;5217;43.960;10.954;2023-05-07T01:01:08;2.57;;;1.83;;
10343;SDS011;5217;43.960;10.954;2023-05-07T01:03:37;1.80;;;1.70;;
10343;SDS011;5217;43.960;10.954;2023-05-07T01:06:06;2.10;;;1.90;;
10343;SDS011;5217;43.960;10.954;2023-05-07T01:08:38;1.70;;;1.60;;
10343;SDS011;5217;43.960;10.954;2023-05-07T01:11:08;3.23;;;1.93;;
10343;SDS011;5217;43.960;10.954;2023-05-07T01:13:38;1.90;;;1.60;;
10343;SDS011;5217;43.960;10.954;2023-05-07T01:16:08;2.30;;;1.90;;
10343;SDS011;5217;43.960;10.954;2023-05-07T01:18:37;1.80;;;1.70;;
10343;SDS011;5217;43.960;10.954;2023-05-07T01:21:05;2.33;;;1.83;;
10343;SDS011;5217;43.960;10.954;2023-05-07T01:23:39;2.03;;;1.80;;
10343;SDS011;5217;43.960;10.954;2023-05-07T01:26:08;1.90;;;1.80;;
10343;SDS011;5217;43.960;10.954;2023-05-07T01:28:37;2.00;;;1.80;;
10343;SDS011;5217;43.960;10.954;2023-05-07T01:31:05;2.20;;;2.00;;
10343;SDS011;5217;43.960;10.954;2023-05-07T01:33:35;2.20;;;2.00;;
10343;SDS011;5217;43.960;10.954;2023-05-07T01:36:05;1.70;;;1.60;;
10343;SDS011;5217;43.960;10.954;2023-05-07T01:38:36;2.30;;;2.10;;
10343;SDS011;5217;43.960;10.954;2023-05-07T01:41:06;1.60;;;1.50;;
10343;SDS011;5217;43.960;10.954;2023-05-07T01:43:35;1.90;;;1.80;;
10343;SDS011;5217;43.960;10.954;2023-05-07T01:46:03;1.97;;;1.87;;
10343;SDS011;5217;43.960;10.954;2023-05-07T01:48:33;1.80;;;1.70;;
10343;SDS011;5217;43.960;10.954;2023-05-07T01:51:02;2.37;;;2.00;;
10343;SDS011;5217;43.960;10.954;2023-05-07T01:53:35;2.37;;;2.00;;
10343;SDS011;5217;43.960;10.954;2023-05-07T01:56:04;1.90;;;1.70;;
10343;SDS011;5217;43.960;10.954;2023-05-07T01:58:34;2.87;;;2.00;;
10343;SDS011;5217;43.960;10.954;2023-05-07T02:01:02;2.00;;;1.80;;
10343;SDS011;5217;43.960;10.954;2023-05-07T02:03:31;2.00;;;1.80;;
10343;SDS011;5217;43.960;10.954;2023-05-07T02:05:59;2.30;;;2.10;;
10343;SDS011;5217;43.960;10.954;2023-05-07T02:08:28;1.80;;;1.70;;
10343;SDS011;5217;43.960;10.954;2023-05-07T02:10:57;2.10;;;1.90;;
10343;SDS011;5217;43.960;10.954;2023-05-07T02:13:26;2.20;;;1.97;;
10343;SDS011;5217;43.960;10.954;2023-05-07T02:15:57;2.20;;;2.00;;
10343;SDS011;5217;43.960;10.954;2023-05-07T02:18:26;2.63;;;1.90;;
10343;SDS011;5217;43.960;10.954;2023-05-07T02:20:54;2.30;;;2.10;;
10343;SDS011;5217;43.960;10.954;2023-05-07T02:23:23;3.03;;;2.23;;
10343;SDS011;5217;43.960;10.954;2023-05-07T02:25:51;3.60;;;2.83;;
10343;SDS011;5217;43.960;10.954;2023-05-07T02:28:19;4.70;;;3.13;;
10343;SDS011;5217;43.960;10.954;2023-05-07T02:30:48;4.30;;;2.90;;
10343;SDS011;5217;43.960;10.954;2023-05-07T02:33:18;4.60;;;2.97;;
10343;SDS011;5217;43.960;10.954;2023-05-07T02:35:46;4.93;;;2.80;;
10343;SDS011;5217;43.960;10.954;2023-05-07T02:38:14;3.60;;;2.93;;
10343;SDS011;5217;43.960;10.954;2023-05-07T02:40:43;3.83;;;3.20;;
10343;SDS011;5217;43.960;10.954;2023-05-07T02:43:11;4.63;;;3.13;;
10343;SDS011;5217;43.960;10.954;2023-05-07T02:45:40;4.17;;;3.13;;
10343;SDS011;5217;43.960;10.954;2023-05-07T02:48:09;3.30;;;3.00;;
10343;SDS011;5217;43.960;10.954;2023-05-07T02:50:39;2.87;;;2.57;;
10343;SDS011;5217;43.960;10.954;2023-05-07T02:53:07;3.57;;;2.40;;
10343;SDS011;5217;43.960;10.954;2023-05-07T02:55:36;2.90;;;2.53;;
10343;SDS011;5217;43.960;10.954;2023-05-07T02:58:04;2.97;;;2.47;;
10343;SDS011;5217;43.960;10.954;2023-05-07T03:00:32;2.57;;;2.30;;
10343;SDS011;5217;43.960;10.954;2023-05-07T03:03:01;3.13;;;2.60;;
10343;SDS011;5217;43.960;10.954;2023-05-07T03:05:29;3.87;;;3.00;;
10343;SDS011;5217;43.960;10.954;2023-05-07T03:07:59;3.77;;;3.10;;
10343;SDS011;5217;43.960;10.954;2023-05-07T03:10:28;3.90;;;3.27;;
10343;SDS011;5217;43.960;10.954;2023-05-07T03:12:56;3.93;;;3.00;;
10343;SDS011;5217;43.960;10.954;2023-05-07T03:15:24;3.30;;;3.00;;
10343;SDS011;5217;43.960;10.954;2023-05-07T03:17:53;2.87;;;2.60;;
10343;SDS011;5217;43.960;10.954;2023-05-07T03:20:21;2.93;;;2.27;;
10343;SDS011;5217;43.960;10.954;2023-05-07T03:22:50;2.93;;;2.40;;
10343;SDS011;5217;43.960;10.954;2023-05-07T03:25:19;2.93;;;2.50;;
10343;SDS011;5217;43.960;10.954;2023-05-07T03:27:48;2.60;;;2.40;;
10343;SDS011;5217;43.960;10.954;2023-05-07T03:30:16;2.73;;;2.43;;
10343;SDS011;5217;43.960;10.954;2023-05-07T03:32:45;2.83;;;2.60;;
10343;SDS011;5217;43.960;10.954;2023-05-07T03:35:13;2.50;;;2.30;;
10343;SDS011;5217;43.960;10.954;2023-05-07T03:37:42;2.40;;;2.20;;
10343;SDS011;5217;43.960;10.954;2023-05-07T03:40:11;2.50;;;2.30;;
10343;SDS011;5217;43.960;10.954;2023-05-07T03:42:41;3.43;;;2.40;;
10343;SDS011;5217;43.960;10.954;2023-05-07T03:45:10;3.10;;;2.33;;
10343;SDS011;5217;43.960;10.954;2023-05-07T03:47:38;2.63;;;2.33;;
10343;SDS011;5217;43.960;10.954;2023-05-07T03:50:07;3.07;;;2.77;;
10343;SDS011;5217;43.960;10.954;2023-05-07T03:52:37;4.80;;;3.20;;
10343;SDS011;5217;43.960;10.954;2023-05-07T03:55:05;6.10;;;3.70;;
10343;SDS011;5217;43.960;10.954;2023-05-07T03:57:34;4.20;;;3.80;;
10343;SDS011;5217;43.960;10.954;2023-05-07T04:00:04;4.63;;;3.87;;
10343;SDS011;5217;43.960;10.954;2023-05-07T04:02:34;4.47;;;4.07;;
10343;SDS011;5217;43.960;10.954;2023-05-07T04:05:03;6.30;;;4.90;;
10343;SDS011;5217;43.960;10.954;2023-05-07T04:07:32;6.07;;;5.53;;
10343;SDS011;5217;43.960;10.954;2023-05-07T04:10:00;7.57;;;6.77;;
10343;SDS011;5217;43.960;10.954;2023-05-07T04:12:28;7.63;;;6.83;;
10343;SDS011;5217;43.960;10.954;2023-05-07T04:14:57;8.50;;;7.60;;
10343;SDS011;5217;43.960;10.954;2023-05-07T04:17:27;9.43;;;7.70;;
10343;SDS011;5217;43.960;10.954;2023-05-07T04:19:55;8.43;;;7.50;;
10343;SDS011;5217;43.960;10.954;2023-05-07T04:22:23;9.30;;;7.37;;
10343;SDS011;5217;43.960;10.954;2023-05-07T04:24:52;7.90;;;7.10;;
10343;SDS011;5217;43.960;10.954;2023-05-07T04:27:21;8.20;;;7.20;;
10343;SDS011;5217;43.960;10.954;2023-05-07T04:29:49;7.77;;;6.97;;
10343;SDS011;5217;43.960;10.954;2023-05-07T04:32:17;7.97;;;7.17;;
10343;SDS011;5217;43.960;10.954;2023-05-07T04:34:47;7.60;;;6.73;;
10343;SDS011;5217;43.960;10.954;2023-05-07T04:37:16;7.47;;;6.70;;
10343;SDS011;5217;43.960;10.954;2023-05-07T04:39:44;6.33;;;5.73;;
10343;SDS011;5217;43.960;10.954;2023-05-07T04:42:14;5.40;;;4.90;;
10343;SDS011;5217;43.960;10.954;2023-05-07T04:44:43;5.20;;;4.50;;
10343;SDS011;5217;43.960;10.954;2023-05-07T04:47:12;4.23;;;3.67;;
10343;SDS011;5217;43.960;10.954;2023-05-07T04:49:40;4.17;;;3.77;;
10343;SDS011;5217;43.960;10.954;2023-05-07T04:52:10;3.67;;;3.37;;
10343;SDS011;5217;43.960;10.954;2023-05-07T04:54:38;3.97;;;3.30;;
10343;SDS011;5217;43.960;10.954;2023-05-07T04:57:06;4.07;;;2.87;;
10343;SDS011;5217;43.960;10.954;2023-05-07T04:59:35;3.87;;;3.07;;
10343;SDS011;5217;43.960;10.954;2023-05-07T05:02:03;3.93;;;3.40;;
10343;SDS011;5217;43.960;10.954;2023-05-07T05:04:31;4.17;;;3.77;;
10343;SDS011;5217;43.960;10.954;2023-05-07T05:07:00;3.73;;;3.43;;
10343;SDS011;5217;43.960;10.954;2023-05-07T05:09:31;3.50;;;3.20;;
10343;SDS011;5217;43.960;10.954;2023-05-07T05:11:59;3.03;;;2.80;;
10343;SDS011;5217;43.960;10.954;2023-05-07T05:14:29;3.07;;;2.80;;
10343;SDS011;5217;43.960;10.954;2023-05-07T05:16:57;3.80;;;2.77;;
10343;SDS011;5217;43.960;10.954;2023-05-07T05:19:25;3.37;;;3.07;;
10343;SDS011;5217;43.960;10.954;2023-05-07T05:21:54;3.27;;;2.60;;
10343;SDS011;5217;43.960;10.954;2023-05-07T05:24:22;3.97;;;2.70;;
10343;SDS011;5217;43.960;10.954;2023-05-07T05:26:52;3.40;;;2.50;;
10343;SDS011;5217;43.960;10.954;2023-05-07T05:29:21;3.40;;;2.90;;
10343;SDS011;5217;43.960;10.954;2023-05-07T05:31:49;3.43;;;2.77;;
10343;SDS011;5217;43.960;10.954;2023-05-07T05:34:18;2.77;;;2.50;;
10343;SDS011;5217;43.960;10.954;2023-05-07T05:36:48;3.60;;;2.70;;
10343;SDS011;5217;43.960;10.954;2023-05-07T05:39:16;3.27;;;2.90;;
10343;SDS011;5217;43.960;10.954;2023-05-07T05:41:45;4.90;;;3.60;;
10343;SDS011;5217;43.960;10.954;2023-05-07T05:44:15;4.53;;;3.67;;
10343;SDS011;5217;43.960;10.954;2023-05-07T05:46:43;4.80;;;3.93;;
10343;SDS011;5217;43.960;10.954;2023-05-07T05:49:11;5.17;;;3.93;;
10343;SDS011;5217;43.960;10.954;2023-05-07T05:51:40;5.47;;;4.37;;
10343;SDS011;5217;43.960;10.954;2023-05-07T05:54:08;4.40;;;4.00;;
10343;SDS011;5217;43.960;10.954;2023-05-07T05:56:37;4.67;;;4.03;;
10343;SDS011;5217;43.960;10.954;2023-05-07T05:59:05;9.80;;;5.07;;
10343;SDS011;5217;43.960;10.954;2023-05-07T06:01:35;9.33;;;6.10;;
10343;SDS011;5217;43.960;10.954;2023-05-07T06:04:03;8.43;;;5.70;;
10343;SDS011;5217;43.960;10.954;2023-05-07T06:06:32;7.10;;;5.13;;
10343;SDS011;5217;43.960;10.954;2023-05-07T06:09:00;5.63;;;4.53;;
10343;SDS011;5217;43.960;10.954;2023-05-07T06:11:29;4.23;;;3.83;;
10343;SDS011;5217;43.960;10.954;2023-05-07T06:13:58;4.53;;;3.70;;
10343;SDS011;5217;43.960;10.954;2023-05-07T06:16:27;5.83;;;3.57;;
10343;SDS011;5217;43.960;10.954;2023-05-07T06:18:56;3.73;;;3.40;;
10343;SDS011;5217;43.960;10.954;2023-05-07T06:21:25;3.90;;;3.40;;
10343;SDS011;5217;43.960;10.954;2023-05-07T06:23:53;4.40;;;3.53;;
10343;SDS011;5217;43.960;10.954;2023-05-07T06:26:22;3.30;;;3.00;;
10343;SDS011;5217;43.960;10.954;2023-05-07T06:28:50;4.20;;;3.30;;
10343;SDS011;5217;43.960;10.954;2023-05-07T06:31:19;3.57;;;3.10;;
10343;SDS011;5217;43.960;10.954;2023-05-07T06:33:48;3.53;;;3.23;;
10343;SDS011;5217;43.960;10.954;2023-05-07T06:36:18;3.67;;;3.37;;
10343;SDS011;5217;43.960;10.954;2023-05-07T06:38:46;3.60;;;3.30;;
10343;SDS011;5217;43.960;10.954;2023-05-07T06:41:14;3.40;;;3.10;;
10343;SDS011;5217;43.960;10.954;2023-05-07T06:43:43;3.50;;;3.20;;
10343;SDS011;5217;43.960;10.954;2023-05-07T06:46:11;3.27;;;2.97;;
10343;SDS011;5217;43.960;10.954;2023-05-07T06:48:40;3.70;;;3.17;;
10343;SDS011;5217;43.960;10.954;2023-05-07T06:51:08;4.45;;;3.20;;
10343;SDS011;5217;43.960;10.954;2023-05-07T06:53:38;3.73;;;3.10;;
10343;SDS011;5217;43.960;10.954;2023-05-07T06:56:06;4.20;;;3.10;;
10343;SDS011;5217;43.960;10.954;2023-05-07T06:58:35;3.30;;;2.93;;
10343;SDS011;5217;43.960;10.954;2023-05-07T07:01:03;4.40;;;3.57;;
10343;SDS011;5217;43.960;10.954;2023-05-07T07:03:31;3.85;;;3.45;;
10343;SDS011;5217;43.960;10.954;2023-05-07T07:06:00;3.45;;;3.15;;
10343;SDS011;5217;43.960;10.954;2023-05-07T07:08:29;3.20;;;2.90;;
10343;SDS011;5217;43.960;10.954;2023-05-07T07:10:59;3.55;;;3.10;;
10343;SDS011;5217;43.960;10.954;2023-05-07T07:13:28;4.50;;;2.72;;
10343;SDS011;5217;43.960;10.954;2023-05-07T07:15:56;3.83;;;2.83;;
10343;SDS011;5217;43.960;10.954;2023-05-07T07:18:24;3.35;;;2.95;;
10343;SDS011;5217;43.960;10.954;2023-05-07T07:20:53;4.30;;;2.50;;
10343;SDS011;5217;43.960;10.954;2023-05-07T07:23:21;3.00;;;2.70;;
10343;SDS011;5217;43.960;10.954;2023-05-07T07:25:50;2.50;;;2.30;;
10343;SDS011;5217;43.960;10.954;2023-05-07T07:28:20;4.13;;;3.00;;
10343;SDS011;5217;43.960;10.954;2023-05-07T07:30:49;4.50;;;3.28;;
10343;SDS011;5217;43.960;10.954;2023-05-07T07:33:20;3.40;;;3.00;;
10343;SDS011;5217;43.960;10.954;2023-05-07T07:35:49;3.00;;;2.75;;
10343;SDS011;5217;43.960;10.954;2023-05-07T07:38:17;3.40;;;3.10;;
10343;SDS011;5217;43.960;10.954;2023-05-07T07:40:47;3.17;;;2.88;;
10343;SDS011;5217;43.960;10.954;2023-05-07T07:43:15;3.00;;;2.80;;
10343;SDS011;5217;43.960;10.954;2023-05-07T07:45:45;3.40;;;3.03;;
10343;SDS011;5217;43.960;10.954;2023-05-07T07:48:14;3.53;;;3.22;;
10343;SDS011;5217;43.960;10.954;2023-05-07T07:50:42;4.57;;;3.70;;
10343;SDS011;5217;43.960;10.954;2023-05-07T07:53:12;3.75;;;3.45;;
10343;SDS011;5217;43.960;10.954;2023-05-07T07:55:40;4.57;;;3.78;;
10343;SDS011;5217;43.960;10.954;2023-05-07T07:58:08;3.70;;;3.38;;
10343;SDS011;5217;43.960;10.954;2023-05-07T08:00:37;3.65;;;3.35;;
10343;SDS011;5217;43.960;10.954;2023-05-07T08:03:07;3.10;;;2.90;;
10343;SDS011;5217;43.960;10.954;2023-05-07T08:05:37;3.67;;;3.22;;
10343;SDS011;5217;43.960;10.954;2023-05-07T08:08:06;3.28;;;2.97;;
10343;SDS011;5217;43.960;10.954;2023-05-07T08:10:34;4.00;;;3.20;;
10343;SDS011;5217;43.960;10.954;2023-05-07T08:13:04;3.00;;;2.63;;
10343;SDS011;5217;43.960;10.954;2023-05-07T08:15:33;3.17;;;2.88;;
10343;SDS011;5217;43.960;10.954;2023-05-07T08:18:02;3.75;;;3.08;;
10343;SDS011;5217;43.960;10.954;2023-05-07T08:20:33;3.55;;;3.17;;
10343;SDS011;5217;43.960;10.954;2023-05-07T08:23:05;4.05;;;3.40;;
10343;SDS011;5217;43.960;10.954;2023-05-07T08:25:34;6.20;;;4.97;;
10343;SDS011;5217;43.960;10.954;2023-05-07T08:28:03;5.80;;;5.30;;
10343;SDS011;5217;43.960;10.954;2023-05-07T08:30:35;6.22;;;5.18;;
10343;SDS011;5217;43.960;10.954;2023-05-07T08:33:03;5.75;;;5.15;;
10343;SDS011;5217;43.960;10.954;2023-05-07T08:35:33;4.88;;;4.47;;
10343;SDS011;5217;43.960;10.954;2023-05-07T08:38:01;4.70;;;4.30;;
10343;SDS011;5217;43.960;10.954;2023-05-07T08:40:30;5.45;;;4.57;;
10343;SDS011;5217;43.960;10.954;2023-05-07T08:43:04;5.07;;;3.78;;
10343;SDS011;5217;43.960;10.954;2023-05-07T08:45:33;4.05;;;3.63;;
10343;SDS011;5217;43.960;10.954;2023-05-07T08:48:02;3.15;;;2.92;;
10343;SDS011;5217;43.960;10.954;2023-05-07T08:50:34;4.85;;;3.35;;
10343;SDS011;5217;43.960;10.954;2023-05-07T08:53:03;4.03;;;3.55;;
10343;SDS011;5217;43.960;10.954;2023-05-07T08:55:32;4.50;;;3.53;;
10343;SDS011;5217;43.960;10.954;2023-05-07T08:58:00;3.88;;;3.58;;
10343;SDS011;5217;43.960;10.954;2023-05-07T09:00:29;5.25;;;3.67;;
10343;SDS011;5217;43.960;10.954;2023-05-07T09:03:00;4.95;;;3.70;;
10343;SDS011;5217;43.960;10.954;2023-05-07T09:05:29;5.40;;;3.40;;
10343;SDS011;5217;43.960;10.954;2023-05-07T09:08:00;5.55;;;3.40;;
10343;SDS011;5217;43.960;10.954;2023-05-07T09:10:30;3.13;;;2.80;;
10343;SDS011;5217;43.960;10.954;2023-05-07T09:13:02;5.00;;;3.03;;
10343;SDS011;5217;43.960;10.954;2023-05-07T09:15:31;3.17;;;2.70;;
10343;SDS011;5217;43.960;10.954;2023-05-07T09:18:00;3.70;;;2.70;;
10343;SDS011;5217;43.960;10.954;2023-05-07T09:20:30;2.97;;;2.65;;
10343;SDS011;5217;43.960;10.954;2023-05-07T09:22:59;2.95;;;2.50;;
10343;SDS011;5217;43.960;10.954;2023-05-07T09:25:28;3.65;;;2.28;;
10343;SDS011;5217;43.960;10.954;2023-05-07T09:27:58;4.07;;;2.13;;
10343;SDS011;5217;43.960;10.954;2023-05-07T09:30:27;3.08;;;2.55;;
10343;SDS011;5217;43.960;10.954;2023-05-07T09:32:57;3.00;;;2.70;;
10343;SDS011;5217;43.960;10.954;2023-05-07T09:35:27;2.60;;;2.40;;
10343;SDS011;5217;43.960;10.954;2023-05-07T09:38:00;3.72;;;2.55;;
10343;SDS011;5217;43.960;10.954;2023-05-07T09:40:30;2.28;;;2.08;;
10343;SDS011;5217;43.960;10.954;2023-05-07T09:43:08;2.78;;;2.22;;
10343;SDS011;5217;43.960;10.954;2023-05-07T09:45:38;2.97;;;1.90;;
10343;SDS011;5217;43.960;10.954;2023-05-07T09:48:06;2.00;;;1.88;;
10343;SDS011;5217;43.960;10.954;2023-05-07T09:50:36;2.72;;;2.10;;
10343;SDS011;5217;43.960;10.954;2023-05-07T09:53:11;3.13;;;1.98;;
10343;SDS011;5217;43.960;10.954;2023-05-07T09:55:41;2.80;;;2.22;;
10343;SDS011;5217;43.960;10.954;2023-05-07T09:58:11;4.53;;;2.40;;
10343;SDS011;5217;43.960;10.954;2023-05-07T10:00:42;4.00;;;2.60;;
10343;SDS011;5217;43.960;10.954;2023-05-07T10:03:11;2.97;;;2.60;;
10343;SDS011;5217;43.960;10.954;2023-05-07T10:05:43;2.83;;;2.10;;
10343;SDS011;5217;43.960;10.954;2023-05-07T10:08:15;2.70;;;2.50;;
10343;SDS011;5217;43.960;10.954;2023-05-07T10:10:46;2.60;;;2.40;;
10343;SDS011;5217;43.960;10.954;2023-05-07T10:13:16;3.17;;;2.63;;
10343;SDS011;5217;43.960;10.954;2023-05-07T10:15:46;3.17;;;2.60;;
10343;SDS011;5217;43.960;10.954;2023-05-07T10:18:15;4.43;;;3.05;;
10343;SDS011;5217;43.960;10.954;2023-05-07T10:20:46;4.25;;;3.35;;
10343;SDS011;5217;43.960;10.954;2023-05-07T10:23:18;4.88;;;3.20;;
10343;SDS011;5217;43.960;10.954;2023-05-07T10:25:50;2.97;;;2.67;;
10343;SDS011;5217;43.960;10.954;2023-05-07T10:28:26;3.15;;;2.72;;
10343;SDS011;5217;43.960;10.954;2023-05-07T10:30:58;5.15;;;2.70;;
10343;SDS011;5217;43.960;10.954;2023-05-07T10:33:36;3.35;;;2.83;;
10343;SDS011;5217;43.960;10.954;2023-05-07T10:36:06;4.38;;;2.97;;
10343;SDS011;5217;43.960;10.954;2023-05-07T10:38:36;2.90;;;2.70;;
10343;SDS011;5217;43.960;10.954;2023-05-07T10:41:07;3.10;;;2.63;;
10343;SDS011;5217;43.960;10.954;2023-05-07T10:43:39;4.03;;;2.80;;
10343;SDS011;5217;43.960;10.954;2023-05-07T10:46:09;3.42;;;2.72;;
10343;SDS011;5217;43.960;10.954;2023-05-07T10:51:42;2.30;;;2.10;;
10343;SDS011;5217;43.960;10.954;2023-05-07T10:54:19;2.08;;;1.88;;
10343;SDS011;5217;43.960;10.954;2023-05-07T10:56:54;1.90;;;1.50;;
10343;SDS011;5217;43.960;10.954;2023-05-07T10:59:32;2.22;;;1.50;;
10343;SDS011;5217;43.960;10.954;2023-05-07T11:02:09;1.40;;;1.30;;
10343;SDS011;5217;43.960;10.954;2023-05-07T11:04:40;2.03;;;1.52;;
10343;SDS011;5217;43.960;10.954;2023-05-07T11:10:00;3.17;;;1.50;;
10343;SDS011;5217;43.960;10.954;2023-05-07T11:12:50;2.90;;;1.30;;
10343;SDS011;5217;43.960;10.954;2023-05-07T11:15:36;2.65;;;1.30;;
10343;SDS011;5217;43.960;10.954;2023-05-07T11:18:12;12.55;;;7.10;;
10343;SDS011;5217;43.960;10.954;2023-05-07T11:20:45;13.05;;;8.40;;
10343;SDS011;5217;43.960;10.954;2023-05-07T11:26:25;2.75;;;2.20;;
10343;SDS011;5217;43.960;10.954;2023-05-07T11:28:56;1.67;;;1.55;;
10343;SDS011;5217;43.960;10.954;2023-05-07T11:31:27;2.17;;;1.60;;
10343;SDS011;5217;43.960;10.954;2023-05-07T11:33:56;2.10;;;1.60;;
10343;SDS011;5217;43.960;10.954;2023-05-07T11:36:25;1.63;;;1.45;;
10343;SDS011;5217;43.960;10.954;2023-05-07T11:38:59;1.30;;;1.20;;
10343;SDS011;5217;43.960;10.954;2023-05-07T11:41:35;1.65;;;1.55;;
10343;SDS011;5217;43.960;10.954;2023-05-07T11:44:04;4.30;;;1.80;;
10343;SDS011;5217;43.960;10.954;2023-05-07T11:46:32;2.65;;;1.95;;
10343;SDS011;5217;43.960;10.954;2023-05-07T11:49:01;1.60;;;1.50;;
10343;SDS011;5217;43.960;10.954;2023-05-07T11:51:30;3.00;;;2.00;;
10343;SDS011;5217;43.960;10.954;2023-05-07T11:53:58;2.42;;;1.83;;
10343;SDS011;5217;43.960;10.954;2023-05-07T11:56:26;4.35;;;1.85;;
10343;SDS011;5217;43.960;10.954;2023-05-07T11:58:56;4.03;;;2.67;;
10343;SDS011;5217;43.960;10.954;2023-05-07T12:01:24;3.85;;;1.70;;
10343;SDS011;5217;43.960;10.954;2023-05-07T12:03:52;2.53;;;1.90;;
10343;SDS011;5217;43.960;10.954;2023-05-07T12:06:21;1.60;;;1.50;;
10343;SDS011;5217;43.960;10.954;2023-05-07T12:08:50;2.22;;;1.40;;
10343;SDS011;5217;43.960;10.954;2023-05-07T12:11:22;1.60;;;1.50;;
10343;SDS011;5217;43.960;10.954;2023-05-07T12:13:51;2.10;;;1.45;;
10343;SDS011;5217;43.960;10.954;2023-05-07T12:16:26;2.25;;;1.38;;
10343;SDS011;5217;43.960;10.954;2023-05-07T12:18:55;2.70;;;1.75;;
10343;SDS011;5217;43.960;10.954;2023-05-07T12:21:25;2.53;;;1.75;;
10343;SDS011;5217;43.960;10.954;2023-05-07T12:23:53;2.30;;;1.67;;
10343;SDS011;5217;43.960;10.954;2023-05-07T12:26:22;2.83;;;2.13;;
10343;SDS011;5217;43.960;10.954;2023-05-07T12:28:51;1.60;;;1.50;;
10343;SDS011;5217;43.960;10.954;2023-05-07T12:31:20;2.53;;;1.60;;
10343;SDS011;5217;43.960;10.954;2023-05-07T12:33:50;3.97;;;2.28;;
10343;SDS011;5217;43.960;10.954;2023-05-07T12:36:18;2.13;;;1.92;;
10343;SDS011;5217;43.960;10.954;2023-05-07T12:38:49;2.20;;;1.98;;
10343;SDS011;5217;43.960;10.954;2023-05-07T12:41:17;2.28;;;1.83;;
10343;SDS011;5217;43.960;10.954;2023-05-07T12:43:52;1.95;;;1.77;;
10343;SDS011;5217;43.960;10.954;2023-05-07T12:46:24;2.00;;;1.80;;
10343;SDS011;5217;43.960;10.954;2023-05-07T12:48:54;7.07;;;2.13;;
10343;SDS011;5217;43.960;10.954;2023-05-07T12:51:23;2.40;;;1.75;;
10343;SDS011;5217;43.960;10.954;2023-05-07T12:53:52;2.75;;;2.08;;
10343;SDS011;5217;43.960;10.954;2023-05-07T12:56:23;2.03;;;1.70;;
10343;SDS011;5217;43.960;10.954;2023-05-07T12:58:52;2.03;;;1.67;;
10343;SDS011;5217;43.960;10.954;2023-05-07T13:01:28;3.05;;;1.70;;
10343;SDS011;5217;43.960;10.954;2023-05-07T13:04:02;1.80;;;1.70;;
10343;SDS011;5217;43.960;10.954;2023-05-07T13:06:32;2.10;;;1.90;;
10343;SDS011;5217;43.960;10.954;2023-05-07T13:09:00;1.73;;;1.60;;
10343;SDS011;5217;43.960;10.954;2023-05-07T13:11:29;1.63;;;1.52;;
10343;SDS011;5217;43.960;10.954;2023-05-07T13:13:57;2.00;;;1.80;;
10343;SDS011;5217;43.960;10.954;2023-05-07T13:16:26;1.73;;;1.58;;
10343;SDS011;5217;43.960;10.954;2023-05-07T13:18:54;2.03;;;1.80;;
10343;SDS011;5217;43.960;10.954;2023-05-07T13:21:24;2.25;;;1.70;;
10343;SDS011;5217;43.960;10.954;2023-05-07T13:23:53;2.05;;;1.85;;
10343;SDS011;5217;43.960;10.954;2023-05-07T13:26:21;2.15;;;1.90;;
10343;SDS011;5217;43.960;10.954;2023-05-07T13:28:52;2.00;;;1.60;;
10343;SDS011;5217;43.960;10.954;2023-05-07T13:31:21;1.63;;;1.52;;
10343;SDS011;5217;43.960;10.954;2023-05-07T13:33:50;1.52;;;1.42;;
10343;SDS011;5217;43.960;10.954;2023-05-07T13:36:19;1.70;;;1.60;;
10343;SDS011;5217;43.960;10.954;2023-05-07T13:38:49;2.60;;;1.60;;
10343;SDS011;5217;43.960;10.954;2023-05-07T13:41:19;2.17;;;1.98;;
10343;SDS011;5217;43.960;10.954;2023-05-07T13:43:47;2.80;;;2.00;;
10343;SDS011;5217;43.960;10.954;2023-05-07T13:46:16;1.80;;;1.70;;
10343;SDS011;5217;43.960;10.954;2023-05-07T13:48:45;2.20;;;2.00;;
10343;SDS011;5217;43.960;10.954;2023-05-07T13:51:13;2.67;;;2.08;;
10343;SDS011;5217;43.960;10.954;2023-05-07T13:53:42;3.03;;;1.60;;
10343;SDS011;5217;43.960;10.954;2023-05-07T13:56:12;1.83;;;1.70;;
10343;SDS011;5217;43.960;10.954;2023-05-07T13:58:40;1.83;;;1.73;;
10343;SDS011;5217;43.960;10.954;2023-05-07T14:01:25;2.17;;;1.95;;
10343;SDS011;5217;43.960;10.954;2023-05-07T14:03:55;4.20;;;1.80;;
10343;SDS011;5217;43.960;10.954;2023-05-07T14:06:24;2.78;;;1.40;;
10343;SDS011;5217;43.960;10.954;2023-05-07T14:08:53;2.80;;;1.50;;
10343;SDS011;5217;43.960;10.954;2023-05-07T14:11:25;1.45;;;1.35;;
10343;SDS011;5217;43.960;10.954;2023-05-07T14:13:54;1.70;;;1.60;;
10343;SDS011;5217;43.960;10.954;2023-05-07T14:16:23;1.60;;;1.48;;
10343;SDS011;5217;43.960;10.954;2023-05-07T14:18:52;2.13;;;1.77;;
10343;SDS011;5217;43.960;10.954;2023-05-07T14:21:23;1.80;;;1.65;;
10343;SDS011;5217;43.960;10.954;2023-05-07T14:23:52;2.92;;;1.40;;
10343;SDS011;5217;43.960;10.954;2023-05-07T14:26:23;3.92;;;1.80;;
10343;SDS011;5217;43.960;10.954;2023-05-07T14:28:54;2.22;;;1.63;;
10343;SDS011;5217;43.960;10.954;2023-05-07T14:31:24;1.70;;;1.60;;
10343;SDS011;5217;43.960;10.954;2023-05-07T14:33:53;1.50;;;1.40;;
10343;SDS011;5217;43.960;10.954;2023-05-07T14:36:24;2.25;;;1.63;;
10343;SDS011;5217;43.960;10.954;2023-05-07T14:38:53;1.52;;;1.42;;
10343;SDS011;5217;43.960;10.954;2023-05-07T14:41:22;2.30;;;1.73;;
10343;SDS011;5217;43.960;10.954;2023-05-07T14:43:50;2.03;;;1.60;;
10343;SDS011;5217;43.960;10.954;2023-05-07T14:46:20;2.53;;;1.30;;
10343;SDS011;5217;43.960;10.954;2023-05-07T14:48:50;2.35;;;1.50;;
10343;SDS011;5217;43.960;10.954;2023-05-07T14:51:18;2.45;;;1.42;;
10343;SDS011;5217;43.960;10.954;2023-05-07T14:53:48;1.42;;;1.27;;
10343;SDS011;5217;43.960;10.954;2023-05-07T14:56:17;1.95;;;1.40;;
10343;SDS011;5217;43.960;10.954;2023-05-07T14:58:46;1.75;;;1.30;;
10343;SDS011;5217;43.960;10.954;2023-05-07T15:01:15;2.67;;;1.60;;
10343;SDS011;5217;43.960;10.954;2023-05-07T15:03:45;1.58;;;1.48;;
10343;SDS011;5217;43.960;10.954;2023-05-07T15:06:13;1.63;;;1.50;;
10343;SDS011;5217;43.960;10.954;2023-05-07T15:08:42;2.17;;;1.80;;
10343;SDS011;5217;43.960;10.954;2023-05-07T15:11:10;1.80;;;1.52;;